Ithaca Tompkins Regional Airport Ithaca US
ICAO: KITH
IATA: ITH
Category: Medium
Scheduled Services: Yes

Elevation: 1099 ft
TransAlt. 18000 ft.

Airport Communications:
ELMIRA APP/DEP:124.3
ASOS:125.175
ATIS:125.175
CTAF:119.6
GND:121.8
BUFFALO RDO:111.8
TWR:119.6
UNICOM:122.95

KITH Zoom In..

If Map Doesn't Load, Click Here

Runways:

(A) RW 14 length 6977 ft width 150 ft
---- / hdg 145

(B) RW 15 length 2018 ft width 50 ft
---- / hdg 144

(C) RW 32 length 6977 ft width 150 ft
ILS 108.70 / hdg 325

(D) RW 33 length 2018 ft width 50 ft
---- / hdg 324

Location; KITH
Day. 26 / Time. 10.30 Zulu
* Altimeter: 29.92
* Temperature: 20° c. 68°f.
* Wind from: 160° Speed 11 kn.
Dewpoint: 18° c.
Visibility: 10 Statute Miles.
Clouds: Broken 1400 ft.
Clouds: Broken 8500 ft.

KITH 261030Z 16011KT 10SM BKN014 BKN085 20/18 A2992 RMK AO2


Wind From 160°
Speed 11 kn.

 
 
jpsmedia.com for Web Design worldairports.se 2018   terms of use